Time;durP1;ratioP1;P1;durP2;ratioP2;P2;SDS_P1;SDS_P2;PMS_P1;PMS_P2;Temp;Humidity;BMP_temperature;BMP_pressure;BME280_temperature;BME280_humidity;BME280_pressure;Samples;Min_cycle;Max_cycle;Signal;HPM_P1;HPM_P2
2020/12/01 00:01:03;;;;;;;;;;;;;20.70;97528.00;;;;5053900;28;1360;-43
2020/12/01 00:03:29;;;;;;;;;;;;;20.70;97524.00;;;;5053743;28;1185;-42
2020/12/01 00:05:55;;;;;;;;;;;;;20.70;97525.00;;;;5053983;28;1017;-43
2020/12/01 00:08:21;;;;;;;;;;;;;20.70;97525.00;;;;5053826;28;1080;-43
2020/12/01 00:10:47;;;;;;;;;;;;;20.60;97519.00;;;;5053505;28;1201;-43
2020/12/01 00:13:14;;;;;;;;;;;;;20.60;97525.00;;;;5053743;28;1088;-41
2020/12/01 00:15:40;;;;;;;;;;;;;20.60;97520.00;;;;5053880;28;1184;-43
2020/12/01 00:18:06;;;;;;;;;;;;;20.60;97514.00;;;;5053627;28;2087;-43
2020/12/01 00:20:32;;;;;;;;;;;;;20.60;97523.00;;;;5053407;28;1495;-42
2020/12/01 00:22:59;;;;;;;;;;;;;20.60;97516.00;;;;5053527;28;1121;-42
2020/12/01 00:25:25;;;;;;;;;;;;;20.60;97513.00;;;;5053547;28;1079;-42
2020/12/01 00:27:51;;;;;;;;;;;;;20.50;97514.00;;;;5053672;28;1029;-43
2020/12/01 00:30:19;;;;;;;;;;;;;20.50;97504.00;;;;5053232;28;1125;-43
2020/12/01 00:32:45;;;;;;;;;;;;;20.50;97499.00;;;;5053199;28;1169;-42
2020/12/01 00:35:11;;;;;;;;;;;;;20.50;97493.00;;;;5053498;28;1017;-43
2020/12/01 00:37:37;;;;;;;;;;;;;20.50;97497.00;;;;5053655;28;1036;-43
2020/12/01 00:40:03;;;;;;;;;;;;;20.50;97494.00;;;;5053306;28;1906;-43
2020/12/01 00:42:29;;;;;;;;;;;;;20.40;97493.00;;;;5052136;28;1155;-42
2020/12/01 00:44:55;;;;;;;;;;;;;20.40;97484.00;;;;5053218;28;1029;-43
2020/12/01 00:47:22;;;;;;;;;;;;;20.40;97491.00;;;;5053114;28;1025;-42
2020/12/01 00:49:48;;;;;;;;;;;;;20.40;97487.00;;;;5052986;28;1107;-43
2020/12/01 00:52:14;;;;;;;;;;;;;20.40;97475.00;;;;5052568;28;1195;-43
2020/12/01 00:54:40;;;;;;;;;;;;;20.40;97470.00;;;;5052834;28;1029;-43
2020/12/01 00:57:06;;;;;;;;;;;;;20.30;97475.00;;;;5052681;28;1064;-42
2020/12/01 00:59:32;;;;;;;;;;;;;20.30;97479.00;;;;5052660;28;1968;-43
2020/12/01 01:01:58;;;;;;;;;;;;;20.30;97468.00;;;;5052901;28;1136;-42
2020/12/01 01:04:24;;;;;;;;;;;;;20.30;97468.00;;;;5052864;28;1065;-41
2020/12/01 01:06:50;;;;;;;;;;;;;20.30;97468.00;;;;5052522;28;1176;-43
2020/12/01 01:09:16;;;;;;;;;;;;;20.20;97460.00;;;;5052375;28;993;-42
2020/12/01 01:11:42;;;;;;;;;;;;;20.20;97455.00;;;;5052648;28;1164;-43
2020/12/01 01:14:08;;;;;;;;;;;;;20.20;97462.00;;;;5052535;28;1183;-43
2020/12/01 01:16:34;;;;;;;;;;;;;20.20;97469.00;;;;5052499;28;1172;-42
2020/12/01 01:19:01;;;;;;;;;;;;;20.20;97464.00;;;;5052435;28;1981;-43
2020/12/01 01:21:28;;;;;;;;;;;;;20.20;97461.00;;;;5052221;28;1172;-43
2020/12/01 01:23:54;;;;;;;;;;;;;20.20;97457.00;;;;5052658;28;1084;-43
2020/12/01 01:26:20;;;;;;;;;;;;;20.10;97461.00;;;;5052627;28;1089;-43
2020/12/01 01:28:46;;;;;;;;;;;;;20.10;97462.00;;;;5052311;28;2145;-42
2020/12/01 01:31:12;;;;;;;;;;;;;20.10;97456.00;;;;5051967;28;1177;-41
2020/12/01 01:33:38;;;;;;;;;;;;;20.10;97456.00;;;;5051877;28;1084;-42
2020/12/01 01:36:04;;;;;;;;;;;;;20.10;97450.00;;;;5052111;28;1024;-41
2020/12/01 01:38:31;;;;;;;;;;;;;20.10;97450.00;;;;5052479;28;1902;-42
2020/12/01 01:40:57;;;;;;;;;;;;;20.10;97451.00;;;;5052074;28;1314;-42
2020/12/01 01:43:23;;;;;;;;;;;;;20.00;97447.00;;;;5052229;28;1117;-42
2020/12/01 01:45:49;;;;;;;;;;;;;20.00;97448.00;;;;5052120;28;1257;-41
2020/12/01 01:48:16;;;;;;;;;;;;;20.00;97447.00;;;;5052199;28;1021;-42
2020/12/01 01:50:43;;;;;;;;;;;;;20.00;97439.00;;;;5051863;28;1205;-42
2020/12/01 01:53:08;;;;;;;;;;;;;20.00;97432.00;;;;5052040;28;1080;-42
2020/12/01 01:55:35;;;;;;;;;;;;;20.00;97433.00;;;;5052239;28;1077;-40
2020/12/01 01:58:02;;;;;;;;;;;;;19.90;97440.00;;;;5051623;28;1442;-42
2020/12/01 02:00:38;;;;;;;;;;;;;19.90;97433.00;;;;5051870;28;1979;-42
2020/12/01 02:03:04;;;;;;;;;;;;;19.90;97425.00;;;;5051961;28;1111;-42
2020/12/01 02:05:30;;;;;;;;;;;;;19.90;97427.00;;;;5051948;28;1026;-42
2020/12/01 02:07:56;;;;;;;;;;;;;19.90;97431.00;;;;5051627;28;1121;-42
2020/12/01 02:10:22;;;;;;;;;;;;;19.90;97427.00;;;;5051985;28;1205;-42
2020/12/01 02:12:49;;;;;;;;;;;;;19.90;97431.00;;;;5051868;28;1161;-42
2020/12/01 02:15:15;;;;;;;;;;;;;19.90;97419.00;;;;5051934;28;1212;-41
2020/12/01 02:17:43;;;;;;;;;;;;;19.80;97408.00;;;;5051819;28;1060;-42
2020/12/01 02:20:10;;;;;;;;;;;;;19.80;97411.00;;;;5051552;28;1910;-42
2020/12/01 02:22:36;;;;;;;;;;;;;19.80;97401.00;;;;5051851;28;1180;-42
2020/12/01 02:25:02;;;;;;;;;;;;;19.80;97400.00;;;;5051574;28;1025;-40
2020/12/01 02:27:29;;;;;;;;;;;;;19.80;97396.00;;;;5051452;28;1129;-42
2020/12/01 02:29:56;;;;;;;;;;;;;19.80;97403.00;;;;5051518;28;1080;-42
2020/12/01 02:32:24;;;;;;;;;;;;;19.80;97397.00;;;;5051364;28;1181;-42
2020/12/01 02:34:50;;;;;;;;;;;;;19.70;97396.00;;;;5051446;28;1109;-41
2020/12/01 02:37:16;;;;;;;;;;;;;19.70;97394.00;;;;5051558;28;1129;-42
2020/12/01 02:39:42;;;;;;;;;;;;;19.70;97392.00;;;;5051360;28;1902;-42
2020/12/01 02:42:09;;;;;;;;;;;;;19.70;97393.00;;;;5051750;28;1178;-42
2020/12/01 02:44:35;;;;;;;;;;;;;19.70;97377.00;;;;5051817;28;1041;-42
2020/12/01 02:47:03;;;;;;;;;;;;;19.70;97383.00;;;;5051385;28;1049;-41
2020/12/01 02:49:29;;;;;;;;;;;;;19.70;97379.00;;;;5051610;28;1009;-40
2020/12/01 02:51:55;;;;;;;;;;;;;19.60;97379.00;;;;5051172;28;1255;-42
2020/12/01 02:54:20;;;;;;;;;;;;;19.60;97365.00;;;;5051428;28;1204;-42
2020/12/01 02:56:46;;;;;;;;;;;;;19.60;97373.00;;;;5051164;28;1123;-42
2020/12/01 02:59:12;;;;;;;;;;;;;19.60;97367.00;;;;5051177;28;1983;-42
2020/12/01 03:01:39;;;;;;;;;;;;;19.60;97367.00;;;;5050868;28;1219;-40
2020/12/01 03:04:05;;;;;;;;;;;;;19.60;97364.00;;;;5051604;28;1009;-41
2020/12/01 03:06:31;;;;;;;;;;;;;19.60;97371.00;;;;5054165;28;1017;-42
2020/12/01 03:08:57;;;;;;;;;;;;;19.60;97366.00;;;;5054754;28;1012;-42
2020/12/01 03:11:23;;;;;;;;;;;;;19.60;97369.00;;;;5054535;28;1220;-42
2020/12/01 03:13:49;;;;;;;;;;;;;19.50;97366.00;;;;5054689;28;1180;-39
2020/12/01 03:16:15;;;;;;;;;;;;;19.50;97359.00;;;;5054541;28;1121;-42
2020/12/01 03:18:42;;;;;;;;;;;;;19.50;97357.00;;;;5054261;28;1898;-42
2020/12/01 03:21:08;;;;;;;;;;;;;19.50;97354.00;;;;5054068;28;1945;-41
2020/12/01 03:23:34;;;;;;;;;;;;;19.50;97353.00;;;;5053526;28;1251;-40
2020/12/01 03:26:00;;;;;;;;;;;;;19.50;97343.00;;;;5054268;28;1080;-42
2020/12/01 03:28:26;;;;;;;;;;;;;19.40;97342.00;;;;5054424;28;1083;-41
2020/12/01 03:30:52;;;;;;;;;;;;;19.40;97337.00;;;;5054099;28;1227;-42
2020/12/01 03:33:18;;;;;;;;;;;;;19.40;97340.00;;;;5054426;28;1212;-42
2020/12/01 03:35:45;;;;;;;;;;;;;19.40;97345.00;;;;5054657;28;1120;-42
2020/12/01 03:38:11;;;;;;;;;;;;;19.40;97351.00;;;;5054303;28;1184;-41
2020/12/01 03:40:37;;;;;;;;;;;;;19.40;97342.00;;;;5053863;28;1974;-42
2020/12/01 03:43:03;;;;;;;;;;;;;19.40;97335.00;;;;5054109;28;1088;-41
2020/12/01 03:45:29;;;;;;;;;;;;;19.40;97333.00;;;;5053847;28;1192;-42
2020/12/01 03:47:55;;;;;;;;;;;;;19.30;97329.00;;;;5054174;28;1169;-42
2020/12/01 03:50:21;;;;;;;;;;;;;19.30;97329.00;;;;5053759;28;1299;-42
2020/12/01 03:52:48;;;;;;;;;;;;;19.30;97326.00;;;;5053995;28;1144;-42
2020/12/01 03:55:14;;;;;;;;;;;;;19.30;97323.00;;;;5053934;28;1120;-42
2020/12/01 03:57:41;;;;;;;;;;;;;19.30;97324.00;;;;5053747;28;1092;-42
2020/12/01 04:00:07;;;;;;;;;;;;;19.30;97319.00;;;;5053521;28;1902;-41
2020/12/01 04:02:33;;;;;;;;;;;;;19.30;97310.00;;;;5053884;28;1200;-42
2020/12/01 04:04:59;;;;;;;;;;;;;19.30;97303.00;;;;5054172;28;1047;-42
2020/12/01 04:07:25;;;;;;;;;;;;;19.30;97306.00;;;;5053546;28;1548;-40
2020/12/01 04:09:52;;;;;;;;;;;;;19.30;97303.00;;;;5053555;28;1105;-42
2020/12/01 04:12:18;;;;;;;;;;;;;19.20;97311.00;;;;5052899;28;1204;-42
2020/12/01 04:14:44;;;;;;;;;;;;;19.20;97306.00;;;;5053652;28;1125;-42
2020/12/01 04:17:10;;;;;;;;;;;;;19.20;97306.00;;;;5053287;28;1017;-41
2020/12/01 04:19:35;;;;;;;;;;;;;19.20;97299.00;;;;5053251;28;1898;-40
2020/12/01 04:22:01;;;;;;;;;;;;;19.20;97298.00;;;;5053214;28;1309;-42
2020/12/01 04:24:27;;;;;;;;;;;;;19.20;97290.00;;;;5053424;28;1072;-42
2020/12/01 04:26:54;;;;;;;;;;;;;19.10;97295.00;;;;5053086;28;1068;-40
2020/12/01 04:29:20;;;;;;;;;;;;;19.10;97291.00;;;;5053404;28;1032;-42
2020/12/01 04:31:46;;;;;;;;;;;;;19.10;97289.00;;;;5053302;28;1271;-42
2020/12/01 04:34:12;;;;;;;;;;;;;19.10;97291.00;;;;5053250;28;1177;-42
2020/12/01 04:36:38;;;;;;;;;;;;;19.10;97280.00;;;;5053157;28;1168;-41
2020/12/01 04:39:04;;;;;;;;;;;;;19.10;97292.00;;;;5053020;28;1985;-42
2020/12/01 04:41:30;;;;;;;;;;;;;19.10;97283.00;;;;5052362;28;1285;-42
2020/12/01 04:43:57;;;;;;;;;;;;;19.00;97286.00;;;;5053259;28;1104;-42
2020/12/01 04:46:23;;;;;;;;;;;;;19.00;97287.00;;;;5053093;28;1092;-42
2020/12/01 04:48:50;;;;;;;;;;;;;19.00;97292.00;;;;5052979;28;1117;-42
2020/12/01 04:51:40;;;;;;;;;;;;;19.00;97287.00;;;;5052576;28;1285;-41
2020/12/01 04:54:21;;;;;;;;;;;;;19.00;97292.00;;;;5037084;28;1387;-42
2020/12/01 04:56:54;;;;;;;;;;;;;19.00;97294.00;;;;5050094;28;1509;-42
2020/12/01 04:59:28;;;;;;;;;;;;;19.00;97291.00;;;;5052454;28;2005;-42
2020/12/01 05:02:12;;;;;;;;;;;;;19.00;97289.00;;;;5052547;28;1295;-42
2020/12/01 05:04:39;;;;;;;;;;;;;19.00;97290.00;;;;5052671;28;1171;-42
2020/12/01 05:07:14;;;;;;;;;;;;;18.90;97291.00;;;;5052585;28;1024;-41
2020/12/01 05:09:41;;;;;;;;;;;;;18.90;97290.00;;;;5052580;28;1162;-42
2020/12/01 05:12:10;;;;;;;;;;;;;18.90;97289.00;;;;5052199;28;1203;-42
2020/12/01 05:14:37;;;;;;;;;;;;;18.90;97282.00;;;;5052581;28;1180;-42
2020/12/01 05:17:30;;;;;;;;;;;;;18.90;97277.00;;;;5051976;28;1509;-42
2020/12/01 05:19:56;;;;;;;;;;;;;18.90;97277.00;;;;5052203;28;1906;-42
2020/12/01 05:22:22;;;;;;;;;;;;;18.90;97280.00;;;;5052205;28;1191;-42
2020/12/01 05:24:48;;;;;;;;;;;;;18.80;97285.00;;;;5052481;28;1180;-42
2020/12/01 05:27:18;;;;;;;;;;;;;18.80;97285.00;;;;5051831;28;1131;-42
2020/12/01 05:29:45;;;;;;;;;;;;;18.80;97286.00;;;;5051912;28;1113;-42
2020/12/01 05:32:11;;;;;;;;;;;;;18.80;97288.00;;;;5052001;28;1267;-42
2020/12/01 05:34:37;;;;;;;;;;;;;18.80;97275.00;;;;5052187;28;1105;-41
2020/12/01 05:37:04;;;;;;;;;;;;;18.80;97281.00;;;;5052177;28;1177;-40
2020/12/01 05:39:32;;;;;;;;;;;;;18.80;97280.00;;;;5052057;28;1898;-42
2020/12/01 05:42:02;;;;;;;;;;;;;18.80;97286.00;;;;5051809;28;1229;-42
2020/12/01 05:44:28;;;;;;;;;;;;;18.70;97282.00;;;;5052456;28;1029;-42
2020/12/01 05:46:56;;;;;;;;;;;;;18.70;97281.00;;;;5052326;28;1075;-42
2020/12/01 05:49:32;;;;;;;;;;;;;18.70;97282.00;;;;5052088;28;1079;-42
2020/12/01 05:52:00;;;;;;;;;;;;;18.70;97279.00;;;;5051820;28;1224;-42
2020/12/01 05:54:31;;;;;;;;;;;;;18.70;97281.00;;;;5052144;28;1235;-40
2020/12/01 05:56:57;;;;;;;;;;;;;18.70;97279.00;;;;5052117;28;1133;-42
2020/12/01 05:59:23;;;;;;;;;;;;;18.70;97280.00;;;;5051893;28;1902;-42
2020/12/01 06:01:50;;;;;;;;;;;;;18.70;97281.00;;;;5052008;28;1308;-40
2020/12/01 06:04:17;;;;;;;;;;;;;18.70;97281.00;;;;5051862;28;1125;-41
2020/12/01 06:07:06;;;;;;;;;;;;;18.60;97282.00;;;;5051901;28;1037;-41
2020/12/01 06:10:02;;;;;;;;;;;;;18.60;97284.00;;;;5051837;28;1100;-41
2020/12/01 06:12:55;;;;;;;;;;;;;18.60;97283.00;;;;5051665;28;1372;-42
2020/12/01 06:15:21;;;;;;;;;;;;;18.60;97286.00;;;;5015292;28;1444;-42
2020/12/01 06:17:48;;;;;;;;;;;;;18.60;97283.00;;;;5051645;28;1511;-40
2020/12/01 06:20:17;;;;;;;;;;;;;18.60;97287.00;;;;5051354;28;1980;-42
2020/12/01 06:23:07;;;;;;;;;;;;;18.60;97281.00;;;;5050557;28;1446;-42
2020/12/01 06:25:38;;;;;;;;;;;;;18.60;97279.00;;;;5036139;28;1437;-42
2020/12/01 06:28:19;;;;;;;;;;;;;18.60;97289.00;;;;5051461;28;1133;-42
2020/12/01 06:31:00;;;;;;;;;;;;;18.50;97289.00;;;;5051313;28;1288;-42
2020/12/01 06:33:40;;;;;;;;;;;;;18.50;97284.00;;;;5051314;28;998;-42
2020/12/01 06:36:27;;;;;;;;;;;;;18.50;97279.00;;;;5051268;28;1033;-42
2020/12/01 06:38:59;;;;;;;;;;;;;18.60;97284.00;;;;5024116;28;2194;-42
2020/12/01 06:41:25;;;;;;;;;;;;;18.70;97278.00;;;;5051853;28;1762;-42
2020/12/01 06:43:52;;;;;;;;;;;;;18.80;97284.00;;;;5054577;28;1733;-42
2020/12/01 06:46:33;;;;;;;;;;;;;18.90;97282.00;;;;5055361;28;1091;-42
2020/12/01 06:48:59;;;;;;;;;;;;;18.90;97278.00;;;;5052413;28;1670;-42
2020/12/01 06:51:25;;;;;;;;;;;;;18.90;97285.00;;;;5054826;28;1188;-42
2020/12/01 06:53:51;;;;;;;;;;;;;19.00;97284.00;;;;5055139;28;1278;-42
2020/12/01 06:56:18;;;;;;;;;;;;;19.00;97282.00;;;;5055456;28;2185;-42
2020/12/01 06:58:44;;;;;;;;;;;;;19.10;97278.00;;;;5053560;28;1987;-42
2020/12/01 07:01:24;;;;;;;;;;;;;19.20;97284.00;;;;5051590;28;1918;-42
2020/12/01 07:03:59;;;;;;;;;;;;;19.20;97281.00;;;;5054585;28;1119;-42
2020/12/01 07:06:41;;;;;;;;;;;;;19.30;97280.00;;;;5054799;28;1521;-43
2020/12/01 07:09:07;;;;;;;;;;;;;19.30;97276.00;;;;5054313;28;1925;-41
2020/12/01 07:11:34;;;;;;;;;;;;;19.40;97268.00;;;;5054061;28;1196;-41
2020/12/01 07:14:01;;;;;;;;;;;;;19.50;97272.00;;;;5054209;28;2015;-42
2020/12/01 07:16:28;;;;;;;;;;;;;19.50;97277.00;;;;5053706;28;1970;-42
2020/12/01 07:18:56;;;;;;;;;;;;;19.60;97271.00;;;;5053105;28;1901;-43
2020/12/01 07:21:23;;;;;;;;;;;;;19.60;97269.00;;;;5054158;28;1294;-43
2020/12/01 07:23:54;;;;;;;;;;;;;19.70;97273.00;;;;5054437;28;1075;-41
2020/12/01 07:26:26;;;;;;;;;;;;;19.70;97271.00;;;;5054351;28;1092;-42
2020/12/01 07:29:07;;;;;;;;;;;;;19.80;97266.00;;;;5052056;28;1691;-42
2020/12/01 07:31:34;;;;;;;;;;;;;19.80;97275.00;;;;5016319;28;1294;-42
2020/12/01 07:34:01;;;;;;;;;;;;;19.90;97276.00;;;;5053796;28;1948;-41
2020/12/01 07:36:29;;;;;;;;;;;;;19.90;97272.00;;;;5053065;28;1304;-42
2020/12/01 07:39:04;;;;;;;;;;;;;20.00;97275.00;;;;5048204;28;1989;-41
2020/12/01 07:41:30;;;;;;;;;;;;;20.10;97273.00;;;;5054001;28;1323;-42
2020/12/01 07:43:59;;;;;;;;;;;;;20.10;97269.00;;;;5054180;28;1255;-42
2020/12/01 07:46:25;;;;;;;;;;;;;20.10;97267.00;;;;5053855;28;1344;-42
2020/12/01 07:48:57;;;;;;;;;;;;;20.20;97263.00;;;;5053805;28;1692;-42
2020/12/01 07:51:23;;;;;;;;;;;;;20.20;97261.00;;;;5052644;28;1324;-42
2020/12/01 07:53:49;;;;;;;;;;;;;20.30;97254.00;;;;5053772;28;1141;-42
2020/12/01 07:56:15;;;;;;;;;;;;;20.30;97257.00;;;;5053978;28;1121;-42
2020/12/01 07:58:41;;;;;;;;;;;;;20.40;97245.00;;;;5053746;28;1028;-40
2020/12/01 08:01:14;;;;;;;;;;;;;20.40;97258.00;;;;5053447;28;1988;-42
2020/12/01 08:03:39;;;;;;;;;;;;;20.50;97256.00;;;;5033206;28;1301;-40
2020/12/01 08:06:07;;;;;;;;;;;;;20.50;97253.00;;;;5033771;28;1132;-42
2020/12/01 08:08:34;;;;;;;;;;;;;20.50;97256.00;;;;5047069;28;2008;-41
2020/12/01 08:11:01;;;;;;;;;;;;;20.60;97258.00;;;;5054134;28;1861;-42
2020/12/01 08:13:26;;;;;;;;;;;;;20.60;97245.00;;;;5053524;28;1087;-42
2020/12/01 08:15:57;;;;;;;;;;;;;20.70;97249.00;;;;5048902;28;1559;-42
2020/12/01 08:18:24;;;;;;;;;;;;;20.70;97252.00;;;;5044277;28;1487;-42
2020/12/01 08:20:50;;;;;;;;;;;;;20.70;97255.00;;;;5049119;28;1906;-41
2020/12/01 08:23:17;;;;;;;;;;;;;20.80;97249.00;;;;5052356;28;1725;-41
2020/12/01 08:25:43;;;;;;;;;;;;;20.80;97256.00;;;;5049862;28;1096;-42
2020/12/01 08:28:21;;;;;;;;;;;;;20.80;97257.00;;;;5053087;28;1184;-41
2020/12/01 08:30:52;;;;;;;;;;;;;20.90;97252.00;;;;5044754;28;1725;-41
2020/12/01 08:33:21;;;;;;;;;;;;;20.90;97245.00;;;;5050048;28;1002;-42
2020/12/01 08:35:49;;;;;;;;;;;;;20.90;97241.00;;;;5045904;28;1701;-42
2020/12/01 08:38:17;;;;;;;;;;;;;21.00;97253.00;;;;5044995;28;1666;-42
2020/12/01 08:40:46;;;;;;;;;;;;;21.00;97243.00;;;;5050923;28;1898;-42
2020/12/01 08:43:15;;;;;;;;;;;;;21.00;97233.00;;;;5052113;28;1141;-42
2020/12/01 08:45:46;;;;;;;;;;;;;21.00;97230.00;;;;5052527;28;1176;-42
2020/12/01 08:48:17;;;;;;;;;;;;;21.10;97231.00;;;;5050907;28;1342;-41
2020/12/01 08:50:43;;;;;;;;;;;;;21.10;97240.00;;;;5049670;28;1445;-42
2020/12/01 08:53:11;;;;;;;;;;;;;21.10;97240.00;;;;5050639;28;1559;-40
2020/12/01 08:55:37;;;;;;;;;;;;;21.20;97239.00;;;;5051937;28;1257;-41
2020/12/01 08:58:10;;;;;;;;;;;;;21.20;97236.00;;;;5052287;28;1124;-42
2020/12/01 09:00:36;;;;;;;;;;;;;21.20;97233.00;;;;5048661;28;1906;-42
2020/12/01 09:03:06;;;;;;;;;;;;;21.20;97230.00;;;;5050145;28;2004;-42
2020/12/01 09:05:33;;;;;;;;;;;;;21.20;97238.00;;;;5052115;28;1202;-41
2020/12/01 09:08:04;;;;;;;;;;;;;21.20;97223.00;;;;5052198;28;1604;-42
2020/12/01 09:10:33;;;;;;;;;;;;;21.30;97227.00;;;;5049735;28;1542;-42
2020/12/01 09:13:09;;;;;;;;;;;;;21.30;97219.00;;;;5047596;28;1602;-42
2020/12/01 09:15:50;;;;;;;;;;;;;21.30;97219.00;;;;5045896;28;1471;-41
2020/12/01 09:18:36;;;;;;;;;;;;;21.30;97219.00;;;;5048373;28;1170;-42
2020/12/01 09:21:51;;;;;;;;;;;;;21.30;97213.00;;;;5049317;28;1977;-42
2020/12/01 09:23:57;;;;;;;;;;;;;21.30;97204.00;;;;5050775;28;1881;-41
2020/12/01 09:26:24;;;;;;;;;;;;;21.30;97205.00;;;;5049859;28;1218;-41
2020/12/01 09:28:51;;;;;;;;;;;;;21.40;97197.00;;;;5051925;28;1237;-41
2020/12/01 09:31:17;;;;;;;;;;;;;21.40;97190.00;;;;5051388;28;1366;-42
2020/12/01 09:33:42;;;;;;;;;;;;;21.40;97185.00;;;;5048301;28;1180;-41
2020/12/01 09:36:08;;;;;;;;;;;;;21.40;97187.00;;;;5051895;28;1245;-42
2020/12/01 09:38:34;;;;;;;;;;;;;21.40;97186.00;;;;5048258;28;1457;-42
2020/12/01 09:41:00;;;;;;;;;;;;;21.40;97182.00;;;;5044190;28;1965;-42
2020/12/01 09:43:32;;;;;;;;;;;;;21.50;97177.00;;;;5043603;28;1498;-42
2020/12/01 09:46:00;;;;;;;;;;;;;21.50;97172.00;;;;5045844;28;1525;-43
2020/12/01 09:48:30;;;;;;;;;;;;;21.50;97170.00;;;;5048400;28;1570;-42
2020/12/01 09:50:56;;;;;;;;;;;;;21.50;97167.00;;;;5043027;28;1443;-42
2020/12/01 09:53:42;;;;;;;;;;;;;21.50;97169.00;;;;5048063;28;1292;-43
2020/12/01 09:56:28;;;;;;;;;;;;;21.50;97158.00;;;;5050888;28;1079;-42
2020/12/01 09:59:24;;;;;;;;;;;;;21.50;97152.00;;;;5051340;28;1118;-41
2020/12/01 10:10:23;;;;;;;;;;;;;21.60;97144.00;;;;5026206;28;1221;-42
2020/12/01 10:12:57;;;;;;;;;;;;;21.60;97134.00;;;;5051348;28;1133;-42
2020/12/01 10:15:48;;;;;;;;;;;;;21.60;97130.00;;;;5054388;28;1186;-42
2020/12/01 10:34:53;;;;;;;;;;;;;21.70;97115.00;;;;4993432;28;846;-42
2020/12/01 10:37:19;;;;;;;;;;;;;21.70;97119.00;;;;4992005;28;1656;-41
2020/12/01 10:39:45;;;;;;;;;;;;;21.70;97121.00;;;;5022520;28;1985;-42
2020/12/01 10:42:11;;;;;;;;;;;;;21.70;97116.00;;;;5055114;28;1298;-41
2020/12/01 10:44:37;;;;;;;;;;;;;21.70;97112.00;;;;5053612;28;1828;-42
2020/12/01 10:47:04;;;;;;;;;;;;;21.80;97117.00;;;;5054785;28;2141;-42
2020/12/01 10:49:30;;;;;;;;;;;;;21.80;97100.00;;;;5051767;28;1507;-39
2020/12/01 10:51:56;;;;;;;;;;;;;21.80;97105.00;;;;5051905;28;1796;-40
2020/12/01 10:54:22;;;;;;;;;;;;;21.80;97109.00;;;;5054830;28;1746;-42
2020/12/01 10:56:48;;;;;;;;;;;;;21.80;97100.00;;;;5054734;28;2110;-40
2020/12/01 10:59:14;;;;;;;;;;;;;21.80;97099.00;;;;5054915;28;1416;-42
2020/12/01 11:01:40;;;;;;;;;;;;;21.80;97097.00;;;;5054326;28;2189;-40
2020/12/01 11:04:07;;;;;;;;;;;;;21.80;97101.00;;;;5055169;28;1033;-41
2020/12/01 11:06:33;;;;;;;;;;;;;21.80;97098.00;;;;5054812;28;1029;-42
2020/12/01 11:08:59;;;;;;;;;;;;;21.80;97095.00;;;;5054380;28;2023;-42
2020/12/01 11:11:25;;;;;;;;;;;;;21.80;97089.00;;;;5054449;28;1380;-43
2020/12/01 11:13:51;;;;;;;;;;;;;21.80;97085.00;;;;5046971;28;1017;-44
2020/12/01 11:16:17;;;;;;;;;;;;;21.90;97088.00;;;;5054747;28;1231;-43
2020/12/01 11:18:43;;;;;;;;;;;;;21.90;97084.00;;;;5054687;28;1175;-42
2020/12/01 11:21:10;;;;;;;;;;;;;21.90;97077.00;;;;5053797;28;1979;-42
2020/12/01 11:23:36;;;;;;;;;;;;;21.90;97081.00;;;;5054707;28;1033;-43
2020/12/01 11:26:02;;;;;;;;;;;;;21.90;97080.00;;;;5053206;28;1824;-41
2020/12/01 11:28:28;;;;;;;;;;;;;21.90;97079.00;;;;5053987;28;1356;-43
2020/12/01 11:30:54;;;;;;;;;;;;;21.90;97078.00;;;;5053864;28;1305;-43
2020/12/01 11:33:20;;;;;;;;;;;;;21.90;97075.00;;;;5054114;28;1241;-41
2020/12/01 11:35:46;;;;;;;;;;;;;21.90;97080.00;;;;5054175;28;1285;-43
2020/12/01 11:38:13;;;;;;;;;;;;;21.90;97073.00;;;;5053607;28;1359;-43
2020/12/01 11:40:38;;;;;;;;;;;;;21.90;97075.00;;;;5052297;28;1961;-43
2020/12/01 11:43:04;;;;;;;;;;;;;22.00;97072.00;;;;5054208;28;1052;-42
2020/12/01 11:45:30;;;;;;;;;;;;;22.00;97062.00;;;;5054202;28;1226;-43
2020/12/01 11:47:56;;;;;;;;;;;;;22.00;97073.00;;;;5052101;28;1601;-43
2020/12/01 11:50:22;;;;;;;;;;;;;22.00;97070.00;;;;5051411;28;1305;-43
2020/12/01 11:52:48;;;;;;;;;;;;;22.00;97064.00;;;;5053188;28;1241;-42
2020/12/01 11:55:15;;;;;;;;;;;;;22.00;97061.00;;;;5053610;28;1145;-42
2020/12/01 11:57:41;;;;;;;;;;;;;22.00;97066.00;;;;5052600;28;1574;-43
2020/12/01 12:00:07;;;;;;;;;;;;;22.00;97062.00;;;;5052527;28;1919;-43
2020/12/01 12:02:33;;;;;;;;;;;;;22.00;97057.00;;;;5053414;28;1446;-43
2020/12/01 12:04:59;;;;;;;;;;;;;22.00;97056.00;;;;5053254;28;1222;-43
2020/12/01 12:07:25;;;;;;;;;;;;;22.10;97054.00;;;;5053577;28;1713;-43
2020/12/01 12:09:51;;;;;;;;;;;;;22.10;97053.00;;;;5053562;28;1269;-43
2020/12/01 12:12:18;;;;;;;;;;;;;22.10;97049.00;;;;5052573;28;1303;-43
2020/12/01 12:14:44;;;;;;;;;;;;;22.10;97049.00;;;;5053675;28;1241;-43
2020/12/01 12:17:10;;;;;;;;;;;;;22.10;97044.00;;;;5052549;28;1586;-43
2020/12/01 12:19:36;;;;;;;;;;;;;22.10;97043.00;;;;5048015;28;1989;-43
2020/12/01 12:22:02;;;;;;;;;;;;;22.10;97041.00;;;;5052699;28;1453;-43
2020/12/01 12:24:28;;;;;;;;;;;;;22.10;97034.00;;;;5051684;28;1503;-40
2020/12/01 12:26:54;;;;;;;;;;;;;22.10;97042.00;;;;5052650;28;1359;-43
2020/12/01 12:29:20;;;;;;;;;;;;;22.20;97042.00;;;;5049166;28;1902;-43
2020/12/01 12:31:46;;;;;;;;;;;;;22.10;97043.00;;;;5050420;28;1265;-43
2020/12/01 12:34:12;;;;;;;;;;;;;22.10;97050.00;;;;5052163;28;1225;-41
2020/12/01 12:36:38;;;;;;;;;;;;;22.20;97039.00;;;;5051603;28;1408;-42
2020/12/01 12:39:04;;;;;;;;;;;;;22.20;97044.00;;;;5048839;28;1537;-43
2020/12/01 12:41:30;;;;;;;;;;;;;22.20;97042.00;;;;5048829;28;1979;-42
2020/12/01 12:43:56;;;;;;;;;;;;;22.20;97046.00;;;;5049881;28;1551;-42
2020/12/01 12:46:23;;;;;;;;;;;;;22.20;97042.00;;;;5050896;28;1506;-43
2020/12/01 12:48:49;;;;;;;;;;;;;22.20;97046.00;;;;5051220;28;1551;-41
2020/12/01 12:51:15;;;;;;;;;;;;;22.20;97044.00;;;;5050107;28;1440;-43
2020/12/01 12:53:41;;;;;;;;;;;;;22.20;97042.00;;;;5048757;28;1118;-43
2020/12/01 12:56:07;;;;;;;;;;;;;22.20;97037.00;;;;5051218;28;1161;-43
2020/12/01 12:58:33;;;;;;;;;;;;;22.20;97036.00;;;;5051996;28;1333;-41
2020/12/01 13:00:59;;;;;;;;;;;;;22.20;97042.00;;;;5051872;28;1898;-41
2020/12/01 13:03:26;;;;;;;;;;;;;22.20;97037.00;;;;5052097;28;1611;-42
2020/12/01 13:05:52;;;;;;;;;;;;;22.20;97045.00;;;;5052170;28;1456;-43
2020/12/01 13:08:18;;;;;;;;;;;;;22.20;97048.00;;;;5051905;28;1706;-43
2020/12/01 13:10:44;;;;;;;;;;;;;22.20;97046.00;;;;5051813;28;1305;-42
2020/12/01 13:13:10;;;;;;;;;;;;;22.20;97046.00;;;;5051723;28;1396;-43
2020/12/01 13:15:36;;;;;;;;;;;;;22.20;97052.00;;;;5052351;28;1285;-43
2020/12/01 13:18:01;;;;;;;;;;;;;22.30;97050.00;;;;5051785;28;1403;-43
2020/12/01 13:20:29;;;;;;;;;;;;;22.30;97056.00;;;;5050149;28;1948;-43
2020/12/01 13:22:55;;;;;;;;;;;;;22.30;97055.00;;;;5047861;28;1757;-42
2020/12/01 13:25:21;;;;;;;;;;;;;22.30;97055.00;;;;5050171;28;1766;-40
2020/12/01 13:27:47;;;;;;;;;;;;;22.30;97058.00;;;;5051819;28;1313;-43
2020/12/01 13:30:13;;;;;;;;;;;;;22.30;97056.00;;;;5044840;28;2103;-42
2020/12/01 13:32:39;;;;;;;;;;;;;22.30;97060.00;;;;5048223;28;2085;-43
2020/12/01 13:35:05;;;;;;;;;;;;;22.30;97060.00;;;;5046600;28;1124;-43
2020/12/01 13:37:32;;;;;;;;;;;;;22.30;97067.00;;;;5050486;28;1757;-42
2020/12/01 13:39:58;;;;;;;;;;;;;22.30;97063.00;;;;5050705;28;1989;-42
2020/12/01 13:42:24;;;;;;;;;;;;;22.30;97069.00;;;;5051319;28;1291;-42
2020/12/01 13:44:50;;;;;;;;;;;;;22.30;97068.00;;;;5051830;28;1292;-42
2020/12/01 13:47:16;;;;;;;;;;;;;22.30;97067.00;;;;5049068;28;1734;-41
2020/12/01 13:49:42;;;;;;;;;;;;;22.30;97068.00;;;;5049506;28;1807;-42
2020/12/01 13:52:08;;;;;;;;;;;;;22.30;97068.00;;;;5051080;28;1425;-42
2020/12/01 13:54:35;;;;;;;;;;;;;22.30;97066.00;;;;5051834;28;2067;-42
2020/12/01 13:57:01;;;;;;;;;;;;;22.30;97060.00;;;;5051318;28;2180;-41
2020/12/01 13:59:27;;;;;;;;;;;;;22.30;97061.00;;;;5051562;28;1329;-42
2020/12/01 14:01:54;;;;;;;;;;;;;22.30;97062.00;;;;5051532;28;1902;-42
2020/12/01 14:04:20;;;;;;;;;;;;;22.30;97062.00;;;;5051959;28;2039;-42
2020/12/01 14:06:46;;;;;;;;;;;;;22.30;97055.00;;;;5052013;28;1059;-42
2020/12/01 14:09:12;;;;;;;;;;;;;22.30;97057.00;;;;5051533;28;1813;-42
2020/12/01 14:11:39;;;;;;;;;;;;;22.30;97065.00;;;;5051635;28;1198;-41
2020/12/01 14:14:04;;;;;;;;;;;;;22.30;97065.00;;;;5051774;28;1037;-40
2020/12/01 14:16:31;;;;;;;;;;;;;22.30;97058.00;;;;5051943;28;1008;-42
2020/12/01 14:18:57;;;;;;;;;;;;;22.30;97059.00;;;;5051649;28;1125;-42
2020/12/01 14:21:23;;;;;;;;;;;;;22.30;97055.00;;;;5051259;28;1988;-42